createdAt,value
2022-11-09T00:02:26.537Z,13.07
2022-11-09T00:05:29.085Z,13.20
2022-11-09T00:08:33.151Z,13.14
2022-11-09T00:11:36.087Z,13.15
2022-11-09T00:14:38.828Z,13.04
2022-11-09T00:17:41.571Z,13.17
2022-11-09T00:23:52.165Z,13.07
2022-11-09T00:26:54.949Z,13.05
2022-11-09T00:29:57.482Z,13.14
2022-11-09T00:33:00.331Z,13.25
2022-11-09T00:36:07.581Z,13.24
2022-11-09T00:39:11.613Z,13.34
2022-11-09T00:42:14.313Z,13.32
2022-11-09T00:45:17.116Z,13.22
2022-11-09T00:48:19.823Z,13.38
2022-11-09T00:51:22.451Z,13.31
2022-11-09T00:54:26.558Z,13.24
2022-11-09T00:57:29.354Z,13.25
2022-11-09T01:00:31.935Z,13.31
2022-11-09T01:03:34.794Z,13.28
2022-11-09T01:06:37.453Z,13.24
2022-11-09T01:09:41.468Z,13.23
2022-11-09T01:12:44.170Z,13.17
2022-11-09T01:15:49.212Z,13.20
2022-11-09T01:18:54.291Z,13.11
2022-11-09T01:21:56.841Z,13.08
2022-11-09T01:25:00.994Z,13.07
2022-11-09T01:28:04.627Z,13.04
2022-11-09T01:31:08.657Z,13.07
2022-11-09T01:34:14.571Z,13.03
2022-11-09T01:37:17.131Z,12.95
2022-11-09T01:40:21.190Z,13.07
2022-11-09T01:43:25.366Z,13.15
2022-11-09T01:46:35.514Z,13.07
2022-11-09T01:49:42.121Z,12.95
2022-11-09T01:52:48.307Z,12.91
2022-11-09T01:55:56.410Z,13.19
2022-11-09T01:59:02.688Z,13.09
2022-11-09T02:02:06.135Z,13.06
2022-11-09T02:05:13.813Z,12.90
2022-11-09T02:08:19.690Z,12.75
2022-11-09T02:11:25.329Z,12.85
2022-11-09T02:14:30.737Z,12.85
2022-11-09T02:17:35.150Z,12.80
2022-11-09T02:20:48.400Z,12.60
2022-11-09T02:23:51.738Z,12.49
2022-11-09T02:26:55.782Z,12.47
2022-11-09T02:30:00.247Z,12.56
2022-11-09T02:33:02.822Z,12.45
2022-11-09T02:36:07.277Z,12.33
2022-11-09T02:39:11.139Z,12.31
2022-11-09T02:42:21.261Z,12.37
2022-11-09T02:45:24.478Z,12.39
2022-11-09T02:48:27.287Z,12.59
2022-11-09T02:51:31.678Z,12.38
2022-11-09T02:54:34.293Z,12.31
2022-11-09T02:57:37.045Z,12.36
2022-11-09T03:00:39.742Z,12.33
2022-11-09T03:03:42.438Z,12.39
2022-11-09T03:06:46.532Z,12.52
2022-11-09T03:09:49.103Z,12.55
2022-11-09T03:12:51.825Z,12.49
2022-11-09T03:15:54.622Z,12.44
2022-11-09T03:18:58.093Z,12.46
2022-11-09T03:22:02.201Z,12.45
2022-11-09T03:25:05.328Z,12.46
2022-11-09T03:28:09.085Z,12.53
2022-11-09T03:31:11.967Z,12.63
2022-11-09T03:34:14.770Z,12.67
2022-11-09T03:37:19.375Z,12.68
2022-11-09T03:40:22.402Z,12.74
2022-11-09T03:43:25.099Z,12.67
2022-11-09T03:46:28.078Z,12.79
2022-11-09T03:49:30.736Z,12.83
2022-11-09T03:52:35.085Z,12.86
2022-11-09T03:55:38.310Z,12.87
2022-11-09T03:58:41.043Z,12.90
2022-11-09T04:01:43.809Z,13.02
2022-11-09T04:04:46.478Z,12.99
2022-11-09T04:07:52.302Z,12.83
2022-11-09T04:10:55.505Z,12.86
2022-11-09T04:13:58.236Z,12.87
2022-11-09T04:17:00.913Z,12.83
2022-11-09T04:20:03.652Z,12.81
2022-11-09T04:23:10.955Z,12.69
2022-11-09T04:26:13.491Z,12.66
2022-11-09T04:29:16.194Z,12.52
2022-11-09T04:32:18.986Z,12.52
2022-11-09T04:35:21.560Z,12.47
2022-11-09T04:38:25.513Z,12.46
2022-11-09T04:41:28.825Z,12.62
2022-11-09T04:44:31.380Z,12.50
2022-11-09T04:47:33.935Z,12.47
2022-11-09T04:50:36.765Z,12.46
2022-11-09T04:53:41.415Z,12.45
2022-11-09T04:56:44.029Z,12.51
2022-11-09T04:59:46.774Z,12.61
2022-11-09T05:02:49.329Z,12.58
2022-11-09T05:05:51.990Z,12.52
2022-11-09T05:08:57.078Z,12.65
2022-11-09T05:11:59.649Z,12.73
2022-11-09T05:15:02.343Z,12.69
2022-11-09T05:18:06.236Z,12.65
2022-11-09T05:21:08.797Z,12.68
2022-11-09T05:24:13.063Z,12.84
2022-11-09T05:27:17.321Z,12.97
2022-11-09T05:30:20.320Z,12.93
2022-11-09T05:33:23.365Z,12.97
2022-11-09T05:36:27.761Z,12.95
2022-11-09T05:39:31.762Z,12.81
2022-11-09T05:42:34.330Z,12.95
2022-11-09T05:45:42.733Z,12.92
2022-11-09T05:48:46.624Z,13.00
2022-11-09T05:51:49.172Z,13.04
2022-11-09T05:54:53.079Z,13.07
2022-11-09T05:57:55.785Z,13.07
2022-11-09T06:00:59.899Z,13.16
2022-11-09T06:04:02.623Z,13.13
2022-11-09T06:07:05.295Z,13.06
2022-11-09T06:10:10.596Z,13.22
2022-11-09T06:13:13.157Z,13.27
2022-11-09T06:16:15.908Z,13.19
2022-11-09T06:19:18.490Z,13.35
2022-11-09T06:22:21.060Z,13.24
2022-11-09T06:25:25.873Z,13.29
2022-11-09T06:28:28.912Z,13.27
2022-11-09T06:31:31.658Z,13.36
2022-11-09T06:34:34.395Z,13.27
2022-11-09T06:37:37.196Z,13.26
2022-11-09T06:40:41.230Z,13.34
2022-11-09T06:43:44.019Z,13.40
2022-11-09T06:46:46.611Z,13.20
2022-11-09T06:49:49.342Z,13.14
2022-11-09T06:52:51.921Z,13.05
2022-11-09T06:55:58.762Z,13.08
2022-11-09T06:59:01.343Z,13.12
2022-11-09T07:02:04.069Z,13.01
2022-11-09T07:05:07.282Z,13.07
2022-11-09T07:08:10.498Z,13.15
2022-11-09T07:11:17.018Z,13.08
2022-11-09T07:14:19.632Z,13.03
2022-11-09T07:17:22.334Z,12.88
2022-11-09T07:20:25.103Z,12.75
2022-11-09T07:23:27.737Z,12.73
2022-11-09T07:26:31.770Z,12.70
2022-11-09T07:29:34.364Z,12.66
2022-11-09T07:33:07.342Z,12.67
2022-11-09T07:36:02.074Z,12.78
2022-11-09T07:39:09.643Z,12.68
2022-11-09T07:42:13.684Z,12.75
2022-11-09T07:45:16.362Z,12.66
2022-11-09T07:48:19.103Z,12.72
2022-11-09T07:51:21.812Z,12.78
2022-11-09T07:54:25.759Z,12.89
2022-11-09T07:57:29.796Z,12.80
2022-11-09T08:00:34.602Z,12.89
2022-11-09T08:03:37.739Z,12.91
2022-11-09T08:06:40.351Z,12.98
2022-11-09T08:09:43.479Z,12.97
2022-11-09T08:12:54.573Z,12.98
2022-11-09T08:15:57.172Z,13.09
2022-11-09T08:18:59.863Z,12.94
2022-11-09T08:22:02.588Z,12.98
2022-11-09T08:25:05.766Z,12.98
2022-11-09T08:28:14.470Z,13.09
2022-11-09T08:31:17.685Z,13.20
2022-11-09T08:34:20.402Z,13.12
2022-11-09T08:37:22.996Z,13.05
2022-11-09T08:40:26.930Z,13.15
2022-11-09T08:43:30.893Z,13.14
2022-11-09T08:46:38.372Z,13.11
2022-11-09T08:49:44.575Z,13.13
2022-11-09T08:52:47.146Z,13.28
2022-11-09T08:55:49.836Z,13.30
2022-11-09T08:58:53.922Z,13.26
2022-11-09T09:01:56.668Z,13.39
2022-11-09T09:04:59.291Z,13.26
2022-11-09T09:08:02.753Z,13.30
2022-11-09T09:11:06.208Z,13.21
2022-11-09T09:14:10.303Z,13.34
2022-11-09T09:17:13.057Z,13.46
2022-11-09T09:20:16.281Z,13.43
2022-11-09T09:23:19.013Z,13.55
2022-11-09T09:26:22.321Z,13.70
2022-11-09T09:29:26.418Z,13.73
2022-11-09T09:32:30.069Z,13.86
2022-11-09T09:35:32.859Z,14.01
2022-11-09T09:38:35.539Z,14.00
2022-11-09T09:41:41.691Z,14.25
2022-11-09T09:44:51.942Z,14.76
2022-11-09T09:48:00.284Z,15.12
2022-11-09T09:51:07.782Z,15.13
2022-11-09T09:54:17.450Z,15.34
2022-11-09T09:57:23.088Z,15.22
2022-11-09T10:00:29.000Z,14.90
2022-11-09T10:03:32.289Z,14.88
2022-11-09T10:06:44.194Z,15.14
2022-11-09T10:10:10.992Z,15.10
2022-11-09T10:13:30.977Z,14.97
2022-11-09T10:16:43.847Z,15.07
2022-11-09T10:20:01.120Z,15.68
2022-11-09T10:23:24.508Z,15.69
2022-11-09T10:26:34.383Z,15.28
2022-11-09T10:29:42.742Z,15.19
2022-11-09T10:32:51.577Z,15.53
2022-11-09T10:36:06.856Z,16.10
2022-11-09T10:39:14.777Z,15.87
2022-11-09T10:42:17.470Z,16.57
2022-11-09T10:45:29.268Z,17.00
2022-11-09T10:48:36.539Z,17.23
2022-11-09T10:51:42.361Z,17.40
2022-11-09T10:54:44.984Z,17.49
2022-11-09T10:58:00.325Z,17.20
2022-11-09T11:01:06.074Z,17.30
2022-11-09T11:04:23.266Z,17.29
2022-11-09T11:07:26.393Z,17.38
2022-11-09T11:10:29.144Z,16.66
2022-11-09T11:13:31.769Z,16.49
2022-11-09T11:16:35.957Z,16.40
2022-11-09T11:19:41.551Z,16.34
2022-11-09T11:22:44.235Z,16.39
2022-11-09T11:26:00.730Z,16.73
2022-11-09T11:29:14.076Z,16.62
2022-11-09T11:32:21.269Z,17.03
2022-11-09T11:35:35.374Z,16.85
2022-11-09T11:38:42.460Z,16.88
2022-11-09T11:42:15.866Z,17.01
2022-11-09T11:45:41.580Z,17.12
2022-11-09T11:49:10.023Z,17.86
2022-11-09T11:52:19.644Z,18.01
2022-11-09T11:55:40.780Z,17.71
2022-11-09T11:58:56.699Z,17.64
2022-11-09T12:02:23.031Z,17.75
2022-11-09T12:05:56.260Z,17.59
2022-11-09T12:09:22.786Z,17.38
2022-11-09T12:12:36.408Z,17.20
2022-11-09T12:15:51.878Z,17.27
2022-11-09T12:19:23.876Z,17.56
2022-11-09T12:22:40.534Z,17.22
2022-11-09T12:25:50.032Z,16.99
2022-11-09T12:29:08.861Z,17.14
2022-11-09T12:32:22.357Z,17.01
2022-11-09T12:35:33.251Z,17.17
2022-11-09T12:38:42.414Z,17.32
2022-11-09T12:41:49.980Z,17.51
2022-11-09T12:45:02.898Z,17.37
2022-11-09T12:48:16.368Z,17.49
2022-11-09T12:51:20.813Z,17.16
2022-11-09T12:54:25.106Z,17.07
2022-11-09T12:57:31.206Z,17.21
2022-11-09T13:00:51.871Z,17.13
2022-11-09T13:03:57.563Z,16.90
2022-11-09T13:07:49.527Z,17.02
2022-11-09T13:11:10.152Z,16.80
2022-11-09T13:14:39.412Z,16.73
2022-11-09T13:17:56.955Z,16.76
2022-11-09T13:21:35.058Z,16.79
2022-11-09T13:24:57.120Z,16.68
2022-11-09T13:28:00.024Z,16.67
2022-11-09T13:31:04.900Z,16.58
2022-11-09T13:34:46.059Z,16.62
2022-11-09T13:37:56.047Z,16.52
2022-11-09T13:40:59.767Z,16.69
2022-11-09T13:44:16.186Z,16.55
2022-11-09T13:47:25.022Z,16.59
2022-11-09T13:50:30.053Z,16.62
2022-11-09T13:53:52.767Z,16.63
2022-11-09T13:56:56.308Z,16.53
2022-11-09T14:00:00.902Z,16.38
2022-11-09T14:03:17.025Z,16.45
2022-11-09T14:06:20.513Z,16.32
2022-11-09T14:09:23.270Z,16.27
2022-11-09T14:12:42.078Z,16.30
2022-11-09T14:15:53.279Z,16.28
2022-11-09T14:19:17.808Z,16.05
2022-11-09T14:22:21.284Z,16.00
2022-11-09T14:25:25.885Z,15.73
2022-11-09T14:28:30.444Z,15.82
2022-11-09T14:31:33.290Z,15.90
2022-11-09T14:34:37.519Z,15.96
2022-11-09T14:37:45.745Z,15.68
2022-11-09T14:40:50.001Z,15.63
2022-11-09T14:43:54.663Z,15.55
2022-11-09T14:46:58.199Z,15.61
2022-11-09T14:50:02.660Z,15.52
2022-11-09T14:53:06.033Z,15.44
2022-11-09T14:56:12.747Z,15.39
2022-11-09T14:59:17.391Z,15.50
2022-11-09T15:02:22.268Z,15.24
2022-11-09T15:05:40.032Z,15.27
2022-11-09T15:08:51.699Z,15.15
2022-11-09T15:11:55.071Z,15.20
2022-11-09T15:15:01.509Z,15.06
2022-11-09T15:18:04.547Z,14.99
2022-11-09T15:21:21.769Z,15.16
2022-11-09T15:24:26.765Z,15.08
2022-11-09T15:27:32.117Z,14.99
2022-11-09T15:30:39.853Z,14.80
2022-11-09T15:33:49.788Z,14.88
2022-11-09T15:36:56.399Z,14.85
2022-11-09T15:40:00.193Z,14.74
2022-11-09T15:43:03.087Z,14.77
2022-11-09T15:46:06.737Z,14.88
2022-11-09T15:49:19.079Z,14.73
2022-11-09T15:52:23.254Z,14.61
2022-11-09T15:55:26.592Z,14.74
2022-11-09T15:58:29.440Z,14.51
2022-11-09T16:01:32.947Z,14.34
2022-11-09T16:04:35.791Z,14.28
2022-11-09T16:07:48.257Z,14.48
2022-11-09T16:10:50.968Z,14.41
2022-11-09T16:13:53.653Z,14.35
2022-11-09T16:16:56.363Z,14.30
2022-11-09T16:19:59.022Z,14.25
2022-11-09T16:23:03.239Z,14.19
2022-11-09T16:26:09.205Z,14.12
2022-11-09T16:29:12.046Z,14.33
2022-11-09T16:32:14.709Z,14.39
2022-11-09T16:35:32.996Z,14.22
2022-11-09T16:38:40.031Z,14.29
2022-11-09T16:41:43.919Z,14.10
2022-11-09T16:44:49.188Z,14.24
2022-11-09T16:47:57.034Z,14.08
2022-11-09T16:50:59.901Z,14.02
2022-11-09T16:54:04.114Z,13.86
2022-11-09T16:57:06.797Z,13.86
2022-11-09T17:00:10.673Z,13.76
2022-11-09T17:03:14.136Z,13.71
2022-11-09T17:06:17.023Z,13.87
2022-11-09T17:09:21.708Z,13.64
2022-11-09T17:12:24.800Z,13.57
2022-11-09T17:15:27.900Z,13.51
2022-11-09T17:18:30.588Z,13.49
2022-11-09T17:21:33.300Z,13.43
2022-11-09T17:24:37.337Z,13.40
2022-11-09T17:27:40.185Z,13.34
2022-11-09T17:30:42.926Z,13.33
2022-11-09T17:33:45.901Z,13.33
2022-11-09T17:37:03.651Z,13.34
2022-11-09T17:40:09.798Z,13.36
2022-11-09T17:43:12.609Z,13.32
2022-11-09T17:46:16.933Z,13.31
2022-11-09T17:49:19.750Z,13.22
2022-11-09T17:52:22.420Z,13.19
2022-11-09T17:55:26.601Z,13.26
2022-11-09T17:58:30.155Z,13.17
2022-11-09T18:01:39.520Z,13.18
2022-11-09T18:04:43.782Z,13.22
2022-11-09T18:07:46.443Z,13.24
2022-11-09T18:10:51.152Z,13.28
2022-11-09T18:13:54.314Z,13.43
2022-11-09T18:16:59.618Z,13.45
2022-11-09T18:20:02.462Z,13.44
2022-11-09T18:23:05.123Z,13.44
2022-11-09T18:26:10.159Z,13.46
2022-11-09T18:29:13.061Z,13.46
2022-11-09T18:32:15.799Z,13.56
2022-11-09T18:35:18.630Z,13.52
2022-11-09T18:38:24.322Z,13.47
2022-11-09T18:41:30.801Z,13.50
2022-11-09T18:44:33.667Z,13.45
2022-11-09T18:47:36.528Z,13.36
2022-11-09T18:50:39.665Z,13.40
2022-11-09T18:53:44.517Z,13.39
2022-11-09T18:56:49.044Z,13.37
2022-11-09T18:59:51.761Z,13.33
2022-11-09T19:02:54.498Z,13.42
2022-11-09T19:05:57.440Z,13.27
2022-11-09T19:09:17.763Z,13.25
2022-11-09T19:12:22.046Z,13.22
2022-11-09T19:15:24.774Z,13.14
2022-11-09T19:18:27.641Z,13.34
2022-11-09T19:21:37.990Z,13.17
2022-11-09T19:24:40.874Z,13.12
2022-11-09T19:27:44.947Z,13.05
2022-11-09T19:30:47.615Z,13.02
2022-11-09T19:33:50.283Z,12.96
2022-11-09T19:36:52.987Z,12.95
2022-11-09T19:39:55.739Z,12.94
2022-11-09T19:42:59.792Z,12.91
2022-11-09T19:46:05.188Z,12.85
2022-11-09T19:49:09.241Z,12.81
2022-11-09T19:52:12.695Z,12.77
2022-11-09T19:55:15.642Z,12.72
2022-11-09T19:58:19.976Z,12.72
2022-11-09T20:01:23.582Z,12.69
2022-11-09T20:04:26.364Z,12.64
2022-11-09T20:07:29.587Z,12.62
2022-11-09T20:10:32.452Z,12.56
2022-11-09T20:13:39.074Z,12.54
2022-11-09T20:16:44.391Z,12.49
2022-11-09T20:19:47.102Z,12.45
2022-11-09T20:22:50.013Z,12.36
2022-11-09T20:25:52.839Z,12.36
2022-11-09T20:28:56.972Z,12.29
2022-11-09T20:31:59.796Z,12.22
2022-11-09T20:35:02.691Z,12.20
2022-11-09T20:38:05.521Z,12.16
2022-11-09T20:41:11.346Z,12.14
2022-11-09T20:44:15.591Z,12.13
2022-11-09T20:47:30.292Z,12.08
2022-11-09T20:50:40.925Z,12.05
2022-11-09T20:53:44.174Z,12.01
2022-11-09T20:56:46.969Z,12.05
2022-11-09T20:59:51.215Z,12.03
2022-11-09T21:02:53.952Z,12.03
2022-11-09T21:05:59.096Z,12.07
2022-11-09T21:09:04.320Z,12.18
2022-11-09T21:12:22.460Z,12.09
2022-11-09T21:15:26.574Z,12.13
2022-11-09T21:18:29.244Z,12.17
2022-11-09T21:21:36.210Z,12.14
2022-11-09T21:24:57.098Z,12.20
2022-11-09T21:28:20.027Z,12.21
2022-11-09T21:31:24.413Z,12.22
2022-11-09T21:34:29.506Z,12.24
2022-11-09T21:37:35.636Z,12.20
2022-11-09T21:40:38.353Z,12.22
2022-11-09T21:43:41.162Z,12.24
2022-11-09T21:46:46.252Z,12.29
2022-11-09T21:49:49.040Z,12.29
2022-11-09T21:52:51.878Z,12.31
2022-11-09T21:55:54.599Z,12.30
2022-11-09T21:58:57.703Z,12.24
2022-11-09T22:02:01.766Z,12.34
2022-11-09T22:05:05.003Z,12.28
2022-11-09T22:08:08.007Z,12.28
2022-11-09T22:11:13.270Z,12.33
2022-11-09T22:14:35.973Z,12.26
2022-11-09T22:17:40.174Z,12.22
2022-11-09T22:20:56.978Z,12.36
2022-11-09T22:24:00.494Z,12.28
2022-11-09T22:27:03.335Z,12.23
2022-11-09T22:30:07.332Z,12.29
2022-11-09T22:33:11.614Z,12.27
2022-11-09T22:36:15.313Z,12.29
2022-11-09T22:39:18.211Z,12.22
2022-11-09T22:42:21.042Z,12.18
2022-11-09T22:45:23.927Z,12.14
2022-11-09T22:48:28.344Z,12.13
2022-11-09T22:51:31.372Z,12.20
2022-11-09T22:54:34.230Z,12.15
2022-11-09T22:57:37.872Z,12.28
2022-11-09T23:00:41.770Z,12.29
2022-11-09T23:03:45.867Z,12.34
2022-11-09T23:06:48.892Z,12.28
2022-11-09T23:09:51.765Z,12.41
2022-11-09T23:12:54.424Z,12.34
2022-11-09T23:15:58.528Z,12.34
2022-11-09T23:19:02.610Z,12.35
2022-11-09T23:22:05.501Z,12.22
2022-11-09T23:25:26.712Z,12.33
2022-11-09T23:28:29.564Z,12.38
2022-11-09T23:31:32.402Z,12.19
2022-11-09T23:34:36.446Z,12.24
2022-11-09T23:37:39.817Z,12.26
2022-11-09T23:40:42.531Z,12.22
2022-11-09T23:43:49.249Z,12.30
2022-11-09T23:46:52.443Z,12.25
2022-11-09T23:49:56.711Z,12.24
2022-11-09T23:53:02.875Z,12.35
2022-11-09T23:56:07.975Z,12.24
2022-11-09T23:59:10.671Z,12.29
